createdAt,value
2018-05-21T00:00:06.397Z,15.02
2018-05-21T00:01:06.382Z,15.16
2018-05-21T00:02:06.349Z,15.08
2018-05-21T00:03:06.325Z,15.10
2018-05-21T00:04:06.305Z,15.13
2018-05-21T00:05:06.279Z,15.02
2018-05-21T00:06:06.264Z,15.04
2018-05-21T00:07:06.234Z,15.02
2018-05-21T00:08:06.204Z,15.02
2018-05-21T00:09:06.192Z,14.97
2018-05-21T00:10:06.162Z,14.95
2018-05-21T00:11:06.138Z,15.04
2018-05-21T00:12:06.120Z,15.05
2018-05-21T00:13:06.090Z,14.94
2018-05-21T00:14:06.069Z,14.94
2018-05-21T00:15:06.045Z,14.94
2018-05-21T00:16:06.025Z,14.90
2018-05-21T00:17:05.997Z,14.94
2018-05-21T00:18:05.968Z,14.93
2018-05-21T00:19:05.950Z,14.90
2018-05-21T00:20:05.927Z,14.87
2018-05-21T00:21:05.899Z,14.90
2018-05-21T00:22:05.894Z,14.85
2018-05-21T00:23:05.858Z,14.82
2018-05-21T00:24:05.821Z,14.71
2018-05-21T00:25:05.808Z,14.75
2018-05-21T00:26:05.777Z,14.80
2018-05-21T00:27:05.756Z,14.75
2018-05-21T00:28:05.735Z,14.80
2018-05-21T00:29:05.706Z,14.74
2018-05-21T00:30:05.686Z,14.77
2018-05-21T00:31:05.657Z,14.79
2018-05-21T00:32:05.658Z,14.70
2018-05-21T00:33:05.610Z,14.80
2018-05-21T00:34:05.590Z,14.77
2018-05-21T00:35:05.567Z,14.69
2018-05-21T00:36:05.539Z,14.74
2018-05-21T00:37:05.516Z,14.70
2018-05-21T00:38:05.500Z,14.69
2018-05-21T00:39:05.466Z,14.57
2018-05-21T00:40:05.448Z,14.64
2018-05-21T00:41:05.421Z,14.60
2018-05-21T00:42:05.393Z,14.60
2018-05-21T00:43:05.368Z,14.45
2018-05-21T00:44:05.348Z,14.57
2018-05-21T00:45:05.325Z,14.57
2018-05-21T00:46:05.307Z,14.52
2018-05-21T00:47:05.275Z,14.46
2018-05-21T00:48:05.256Z,14.52
2018-05-21T00:49:05.229Z,14.56
2018-05-21T00:50:05.214Z,14.52
2018-05-21T00:51:05.184Z,14.45
2018-05-21T00:52:05.151Z,14.52
2018-05-21T00:53:05.137Z,14.52
2018-05-21T00:54:05.120Z,14.49
2018-05-21T00:55:05.089Z,14.52
2018-05-21T00:56:05.056Z,14.56
2018-05-21T00:57:05.037Z,14.56
2018-05-21T00:58:05.014Z,14.51
2018-05-21T00:59:04.989Z,14.49
2018-05-21T01:00:04.969Z,14.53
2018-05-21T01:01:04.938Z,14.42
2018-05-21T01:02:04.916Z,14.42
2018-05-21T01:03:04.891Z,14.41
2018-05-21T01:04:04.869Z,14.52
2018-05-21T01:05:04.859Z,14.38
2018-05-21T01:06:04.815Z,14.41
2018-05-21T01:07:04.798Z,14.41
2018-05-21T01:08:04.772Z,14.41
2018-05-21T01:09:04.743Z,14.49
2018-05-21T01:10:04.728Z,14.48
2018-05-21T01:11:04.697Z,14.39
2018-05-21T01:12:04.679Z,14.39
2018-05-21T01:13:04.647Z,14.41
2018-05-21T01:14:04.629Z,14.39
2018-05-21T01:15:04.602Z,14.44
2018-05-21T01:16:04.574Z,14.45
2018-05-21T01:17:04.559Z,14.41
2018-05-21T01:18:04.533Z,14.44
2018-05-21T01:19:04.502Z,14.48
2018-05-21T01:20:04.490Z,14.44
2018-05-21T01:21:04.459Z,14.41
2018-05-21T01:22:04.432Z,14.41
2018-05-21T01:23:04.416Z,14.45
2018-05-21T01:24:04.381Z,14.46
2018-05-21T01:25:04.368Z,14.44
2018-05-21T01:26:04.345Z,14.45
2018-05-21T01:27:04.311Z,14.41
2018-05-21T01:28:04.292Z,14.46
2018-05-21T01:29:04.271Z,14.34
2018-05-21T01:30:04.237Z,14.42
2018-05-21T01:31:04.220Z,14.39
2018-05-21T01:32:04.193Z,14.41
2018-05-21T01:33:04.166Z,14.41
2018-05-21T01:34:04.151Z,14.41
2018-05-21T01:35:04.125Z,14.49
2018-05-21T01:36:04.092Z,14.41
2018-05-21T01:37:04.077Z,14.44
2018-05-21T01:38:04.044Z,14.39
2018-05-21T01:39:04.022Z,14.44
2018-05-21T01:40:04.005Z,14.41
2018-05-21T01:41:03.973Z,14.39
2018-05-21T01:42:03.970Z,14.39
2018-05-21T01:43:03.928Z,14.41
2018-05-21T01:44:03.902Z,14.46
2018-05-21T01:45:03.892Z,14.51
2018-05-21T01:46:03.854Z,14.41
2018-05-21T01:47:03.841Z,14.45
2018-05-21T01:48:03.808Z,14.46
2018-05-21T01:49:03.789Z,14.36
2018-05-21T01:50:03.762Z,14.45
2018-05-21T01:51:03.730Z,14.38
2018-05-21T01:52:03.715Z,14.46
2018-05-21T01:53:03.688Z,14.41
2018-05-21T01:54:03.662Z,14.39
2018-05-21T01:55:03.641Z,14.41
2018-05-21T01:56:03.611Z,14.42
2018-05-21T01:57:03.592Z,14.34
2018-05-21T01:58:03.574Z,14.36
2018-05-21T01:59:03.543Z,14.33
2018-05-21T02:00:03.516Z,14.26
2018-05-21T02:01:03.493Z,14.21
2018-05-21T02:02:03.471Z,14.21
2018-05-21T02:03:03.441Z,14.20
2018-05-21T02:04:03.434Z,14.21
2018-05-21T02:05:03.394Z,14.19
2018-05-21T02:06:03.371Z,14.13
2018-05-21T02:07:03.353Z,14.08
2018-05-21T02:08:03.324Z,14.08
2018-05-21T02:09:03.298Z,14.03
2018-05-21T02:10:03.280Z,13.95
2018-05-21T02:11:03.245Z,14.15
2018-05-21T02:12:03.236Z,14.09
2018-05-21T02:13:03.205Z,14.08
2018-05-21T02:14:03.186Z,14.08
2018-05-21T02:15:03.157Z,14.12
2018-05-21T02:16:03.128Z,14.20
2018-05-21T02:17:03.108Z,14.08
2018-05-21T02:18:03.081Z,14.06
2018-05-21T02:19:03.057Z,14.09
2018-05-21T02:20:03.054Z,13.97
2018-05-21T02:21:03.016Z,13.97
2018-05-21T02:22:02.987Z,14.08
2018-05-21T02:23:02.963Z,14.03
2018-05-21T02:24:02.936Z,14.02
2018-05-21T02:25:02.915Z,13.95
2018-05-21T02:26:02.887Z,13.94
2018-05-21T02:27:02.910Z,13.93
2018-05-21T02:28:02.842Z,13.97
2018-05-21T02:29:02.815Z,13.94
2018-05-21T02:30:02.798Z,14.06
2018-05-21T02:31:02.773Z,13.88
2018-05-21T02:32:02.739Z,13.87
2018-05-21T02:33:02.723Z,13.93
2018-05-21T02:34:02.699Z,13.87
2018-05-21T02:35:02.665Z,13.91
2018-05-21T02:36:02.644Z,13.93
2018-05-21T02:37:02.618Z,13.87
2018-05-21T02:38:02.601Z,13.81
2018-05-21T02:39:02.583Z,13.88
2018-05-21T02:40:02.546Z,13.86
2018-05-21T02:41:02.531Z,13.91
2018-05-21T02:42:02.503Z,13.94
2018-05-21T02:43:02.476Z,13.86
2018-05-21T02:44:02.457Z,13.88
2018-05-21T02:45:02.424Z,13.90
2018-05-21T02:46:02.410Z,13.99
2018-05-21T02:47:02.375Z,13.94
2018-05-21T02:48:02.359Z,13.88
2018-05-21T02:49:02.336Z,13.90
2018-05-21T02:50:02.307Z,13.94
2018-05-21T02:51:02.286Z,13.79
2018-05-21T02:52:02.263Z,13.86
2018-05-21T02:53:02.239Z,13.88
2018-05-21T02:54:02.204Z,13.76
2018-05-21T02:55:02.181Z,13.94
2018-05-21T02:56:02.164Z,13.90
2018-05-21T02:57:02.141Z,13.84
2018-05-21T02:58:02.116Z,13.81
2018-05-21T02:59:02.093Z,13.91
2018-05-21T03:00:02.059Z,13.78
2018-05-21T03:01:02.043Z,13.91
2018-05-21T03:02:02.011Z,13.78
2018-05-21T03:03:02.000Z,13.94
2018-05-21T03:04:02.008Z,13.76
2018-05-21T03:05:01.947Z,13.76
2018-05-21T03:06:01.914Z,13.73
2018-05-21T03:07:01.886Z,13.81
2018-05-21T03:08:01.866Z,13.68
2018-05-21T03:09:01.845Z,13.73
2018-05-21T03:10:01.825Z,13.66
2018-05-21T03:11:01.799Z,13.75
2018-05-21T03:12:01.768Z,13.73
2018-05-21T03:13:01.747Z,13.73
2018-05-21T03:14:01.723Z,13.78
2018-05-21T03:15:01.693Z,13.78
2018-05-21T03:16:01.679Z,13.72
2018-05-21T03:17:01.652Z,13.75
2018-05-21T03:18:01.623Z,13.69
2018-05-21T03:19:01.603Z,13.69
2018-05-21T03:20:01.585Z,13.70
2018-05-21T03:21:01.552Z,13.65
2018-05-21T03:22:01.530Z,13.68
2018-05-21T03:23:01.506Z,13.69
2018-05-21T03:24:01.479Z,13.69
2018-05-21T03:25:01.451Z,13.63
2018-05-21T03:26:01.432Z,13.65
2018-05-21T03:27:01.405Z,13.62
2018-05-21T03:28:01.381Z,13.57
2018-05-21T03:29:01.358Z,13.54
2018-05-21T03:30:01.329Z,13.55
2018-05-21T03:31:01.307Z,13.53
2018-05-21T03:32:01.283Z,13.50
2018-05-21T03:33:01.264Z,13.54
2018-05-21T03:34:01.235Z,13.60
2018-05-21T03:35:01.215Z,13.60
2018-05-21T03:36:01.180Z,13.55
2018-05-21T03:37:01.164Z,13.63
2018-05-21T03:38:01.135Z,13.63
2018-05-21T03:39:01.106Z,13.66
2018-05-21T03:40:01.083Z,13.63
2018-05-21T03:41:01.059Z,13.66
2018-05-21T03:42:01.048Z,13.63
2018-05-21T03:43:01.019Z,13.60
2018-05-21T03:44:00.988Z,13.60
2018-05-21T03:45:00.963Z,13.62
2018-05-21T03:46:00.943Z,13.63
2018-05-21T03:47:00.915Z,13.63
2018-05-21T03:48:00.888Z,13.69
2018-05-21T03:49:00.869Z,13.68
2018-05-21T03:50:00.839Z,13.66
2018-05-21T03:51:00.811Z,13.70
2018-05-21T03:52:00.801Z,13.66
2018-05-21T03:53:00.770Z,13.72
2018-05-21T03:54:00.740Z,13.70
2018-05-21T03:55:00.724Z,13.75
2018-05-21T03:56:00.696Z,13.72
2018-05-21T03:57:00.738Z,13.65
2018-05-21T03:58:00.644Z,13.76
2018-05-21T03:59:00.624Z,13.79
2018-05-21T04:00:00.593Z,13.79
2018-05-21T04:01:00.565Z,13.76
2018-05-21T04:02:00.550Z,13.72
2018-05-21T04:03:00.519Z,13.76
2018-05-21T04:04:00.500Z,13.81
2018-05-21T04:05:00.480Z,13.66
2018-05-21T04:06:00.443Z,13.63
2018-05-21T04:07:00.426Z,13.78
2018-05-21T04:08:00.404Z,13.76
2018-05-21T04:09:00.379Z,13.83
2018-05-21T04:10:00.345Z,13.62
2018-05-21T04:11:00.330Z,13.69
2018-05-21T04:12:00.462Z,13.78
2018-05-21T04:13:00.278Z,13.81
2018-05-21T04:14:00.256Z,13.81
2018-05-21T04:15:00.226Z,13.91
2018-05-21T04:16:00.205Z,13.79
2018-05-21T04:17:00.185Z,13.87
2018-05-21T04:18:00.150Z,13.88
2018-05-21T04:19:00.134Z,13.91
2018-05-21T04:20:00.104Z,13.94
2018-05-21T04:21:00.079Z,13.95
2018-05-21T04:22:00.061Z,13.95
2018-05-21T04:23:00.033Z,13.93
2018-05-21T04:24:00.013Z,13.97
2018-05-21T04:24:59.983Z,13.95
2018-05-21T04:25:59.963Z,13.97
2018-05-21T04:26:59.941Z,13.97
2018-05-21T04:27:59.912Z,13.95
2018-05-21T04:28:59.887Z,13.99
2018-05-21T04:29:59.855Z,14.01
2018-05-21T04:30:59.836Z,13.94
2018-05-21T04:31:59.816Z,14.05
2018-05-21T04:32:59.791Z,14.02
2018-05-21T04:33:59.758Z,13.99
2018-05-21T04:34:59.741Z,14.09
2018-05-21T04:35:59.715Z,14.12
2018-05-21T04:36:59.689Z,14.09
2018-05-21T04:37:59.669Z,14.13
2018-05-21T04:38:59.636Z,14.24
2018-05-21T04:39:59.620Z,14.23
2018-05-21T04:40:59.594Z,14.19
2018-05-21T04:41:59.572Z,14.24
2018-05-21T04:42:59.547Z,14.21
2018-05-21T04:43:59.521Z,14.28
2018-05-21T04:44:59.493Z,14.31
2018-05-21T04:45:59.472Z,14.36
2018-05-21T04:46:59.449Z,14.33
2018-05-21T04:47:59.422Z,14.45
2018-05-21T04:48:59.396Z,14.45
2018-05-21T04:49:59.378Z,14.39
2018-05-21T04:50:59.348Z,14.38
2018-05-21T04:51:59.325Z,14.34
2018-05-21T04:52:59.306Z,14.46
2018-05-21T04:53:59.270Z,14.48
2018-05-21T04:54:59.256Z,14.44
2018-05-21T04:55:59.223Z,14.41
2018-05-21T04:56:59.205Z,14.45
2018-05-21T04:57:59.173Z,14.42
2018-05-21T04:58:59.149Z,14.56
2018-05-21T04:59:59.134Z,14.59
2018-05-21T05:00:59.107Z,14.48
2018-05-21T05:01:59.079Z,14.61
2018-05-21T05:02:59.067Z,14.56
2018-05-21T05:03:59.065Z,14.57
2018-05-21T05:04:59.013Z,14.56
2018-05-21T05:05:58.990Z,14.67
2018-05-21T05:06:58.966Z,14.66
2018-05-21T05:07:58.949Z,14.74
2018-05-21T05:08:58.909Z,14.67
2018-05-21T05:09:58.893Z,14.70
2018-05-21T05:10:58.857Z,14.83
2018-05-21T05:11:58.848Z,14.85
2018-05-21T05:12:58.817Z,14.85
2018-05-21T05:13:58.789Z,14.83
2018-05-21T05:14:58.776Z,14.85
2018-05-21T05:15:58.738Z,14.93
2018-05-21T05:16:58.717Z,14.90
2018-05-21T05:17:58.729Z,14.90
2018-05-21T05:18:58.672Z,15.01
2018-05-21T05:19:58.652Z,14.94
2018-05-21T05:20:58.629Z,15.05
2018-05-21T05:21:58.595Z,15.04
2018-05-21T05:22:58.572Z,15.15
2018-05-21T05:23:58.551Z,15.22
2018-05-21T05:24:58.524Z,15.15
2018-05-21T05:25:58.502Z,15.23
2018-05-21T05:26:58.481Z,15.18
2018-05-21T05:27:58.448Z,15.23
2018-05-21T05:28:58.446Z,15.23
2018-05-21T05:29:58.400Z,15.35
2018-05-21T05:30:58.375Z,15.37
2018-05-21T05:31:58.360Z,15.43
2018-05-21T05:33:02.798Z,15.41
2018-05-21T05:33:59.462Z,15.44
2018-05-21T05:35:00.072Z,15.49
2018-05-21T05:36:00.610Z,15.55
2018-05-21T05:37:00.121Z,15.55
2018-05-21T05:37:58.204Z,15.55
2018-05-21T05:38:58.187Z,15.53
2018-05-21T05:39:58.162Z,15.65
2018-05-21T05:40:58.134Z,15.71
2018-05-21T05:41:58.198Z,15.63
2018-05-21T05:42:58.097Z,15.70
2018-05-21T05:43:58.064Z,15.78
2018-05-21T05:44:58.049Z,15.86
2018-05-21T05:45:58.024Z,15.84
2018-05-21T05:46:58.009Z,15.86
2018-05-21T05:47:57.971Z,15.86
2018-05-21T05:48:57.956Z,15.92
2018-05-21T05:49:57.923Z,15.93
2018-05-21T05:50:57.894Z,15.93
2018-05-21T05:51:57.880Z,16.06
2018-05-21T05:52:57.858Z,16.02
2018-05-21T05:53:57.824Z,16.02
2018-05-21T05:54:57.811Z,16.16
2018-05-21T05:55:57.775Z,16.16
2018-05-21T05:56:57.787Z,16.22
2018-05-21T05:57:57.732Z,16.17
2018-05-21T05:58:57.706Z,16.21
2018-05-21T05:59:57.684Z,16.29
2018-05-21T06:00:57.665Z,16.21
2018-05-21T06:01:57.630Z,16.25
2018-05-21T06:02:57.615Z,16.37
2018-05-21T06:03:57.588Z,16.44
2018-05-21T06:04:57.566Z,16.47
2018-05-21T06:05:57.542Z,16.44
2018-05-21T06:06:57.524Z,16.55
2018-05-21T06:07:57.487Z,16.59
2018-05-21T06:08:57.474Z,16.62
2018-05-21T06:09:57.440Z,16.63
2018-05-21T06:10:57.418Z,16.65
2018-05-21T06:11:57.402Z,16.65
2018-05-21T06:12:57.369Z,16.72
2018-05-21T06:13:57.354Z,16.72
2018-05-21T06:14:57.328Z,16.85
2018-05-21T06:15:57.306Z,16.92
2018-05-21T06:16:57.282Z,16.88
2018-05-21T06:17:57.254Z,16.88
2018-05-21T06:18:57.236Z,16.97
2018-05-21T06:19:57.205Z,17.02
2018-05-21T06:20:57.186Z,16.94
2018-05-21T06:21:57.161Z,17.03
2018-05-21T06:22:57.132Z,17.07
2018-05-21T06:23:57.119Z,17.05
2018-05-21T06:24:57.086Z,17.15
2018-05-21T06:25:57.105Z,17.17
2018-05-21T06:26:57.047Z,17.18
2018-05-21T06:27:57.015Z,17.22
2018-05-21T06:28:57.001Z,17.27
2018-05-21T06:29:56.967Z,17.20
2018-05-21T06:30:56.947Z,17.25
2018-05-21T06:31:56.926Z,17.27
2018-05-21T06:32:56.907Z,17.32
2018-05-21T06:33:56.910Z,17.32
2018-05-21T06:34:56.851Z,17.36
2018-05-21T06:35:56.835Z,17.46
2018-05-21T06:36:56.804Z,17.46
2018-05-21T06:37:56.787Z,17.50
2018-05-21T06:38:56.767Z,17.62
2018-05-21T06:39:56.732Z,17.65
2018-05-21T06:40:56.716Z,17.62
2018-05-21T06:41:56.692Z,17.63
2018-05-21T06:42:56.670Z,17.76
2018-05-21T06:43:56.647Z,17.73
2018-05-21T06:44:56.621Z,17.76
2018-05-21T06:45:56.593Z,17.80
2018-05-21T06:46:56.575Z,17.74
2018-05-21T06:47:56.547Z,17.76
2018-05-21T06:48:56.523Z,17.83
2018-05-21T06:49:56.500Z,17.86
2018-05-21T06:50:56.477Z,17.87
2018-05-21T06:51:56.451Z,17.84
2018-05-21T06:52:56.445Z,17.92
2018-05-21T06:53:56.404Z,17.99
2018-05-21T06:54:56.382Z,17.98
2018-05-21T06:55:56.371Z,18.01
2018-05-21T06:56:56.341Z,18.05
2018-05-21T06:57:56.315Z,18.06
2018-05-21T06:58:56.299Z,18.10
2018-05-21T06:59:56.263Z,18.10
2018-05-21T07:00:56.250Z,18.06
2018-05-21T07:01:56.225Z,18.14
2018-05-21T07:02:56.205Z,18.20
2018-05-21T07:03:56.185Z,18.17
2018-05-21T07:04:56.157Z,18.17
2018-05-21T07:05:56.131Z,18.19
2018-05-21T07:06:56.109Z,18.29
2018-05-21T07:07:56.217Z,18.29
2018-05-21T07:08:56.108Z,18.34
2018-05-21T07:09:56.043Z,18.44
2018-05-21T07:10:56.019Z,18.41
2018-05-21T07:11:55.987Z,18.49
2018-05-21T07:12:55.974Z,18.45
2018-05-21T07:13:55.940Z,18.56
2018-05-21T07:14:55.920Z,18.53
2018-05-21T07:15:55.903Z,18.61
2018-05-21T07:16:55.872Z,18.68
2018-05-21T07:17:55.858Z,18.65
2018-05-21T07:18:55.830Z,18.65
2018-05-21T07:19:55.834Z,18.71
2018-05-21T07:20:55.782Z,18.68
2018-05-21T07:21:55.763Z,18.72
2018-05-21T07:22:55.741Z,18.81
2018-05-21T07:23:55.709Z,18.75
2018-05-21T07:24:55.688Z,18.74
2018-05-21T07:25:55.665Z,18.90
2018-05-21T07:26:55.646Z,18.86
2018-05-21T07:27:55.626Z,18.87
2018-05-21T07:28:55.596Z,18.87
2018-05-21T07:29:55.583Z,18.87
2018-05-21T07:30:55.559Z,18.78
2018-05-21T07:31:55.525Z,18.93
2018-05-21T07:32:55.512Z,18.91
2018-05-21T07:33:55.479Z,18.78
2018-05-21T07:34:55.462Z,18.93
2018-05-21T07:35:55.442Z,18.97
2018-05-21T07:36:55.428Z,19.12
2018-05-21T07:37:55.391Z,19.12
2018-05-21T07:38:55.372Z,19.15
2018-05-21T07:39:55.352Z,19.23
2018-05-21T07:40:55.334Z,19.16
2018-05-21T07:41:55.307Z,19.16
2018-05-21T07:42:55.278Z,19.34
2018-05-21T07:43:55.259Z,19.34
2018-05-21T07:44:55.245Z,19.35
2018-05-21T07:45:55.224Z,19.45
2018-05-21T07:46:55.188Z,19.47
2018-05-21T07:47:55.194Z,19.55
2018-05-21T07:48:55.143Z,19.43
2018-05-21T07:49:57.550Z,19.49
2018-05-21T07:50:58.211Z,19.55
2018-05-21T07:51:58.881Z,19.61
2018-05-21T07:52:55.048Z,19.60
2018-05-21T07:53:55.035Z,19.67
2018-05-21T07:54:55.006Z,19.60
2018-05-21T07:55:54.978Z,19.67
2018-05-21T07:56:54.968Z,19.68
2018-05-21T07:57:54.949Z,19.72
2018-05-21T07:58:54.916Z,19.60
2018-05-21T07:59:54.892Z,19.68
2018-05-21T08:00:54.869Z,19.78
2018-05-21T08:01:55.041Z,19.74
2018-05-21T08:02:54.827Z,19.82
2018-05-21T08:03:54.809Z,19.92
2018-05-21T08:04:54.788Z,19.90
2018-05-21T08:05:54.754Z,19.93
2018-05-21T08:06:54.735Z,20.00
2018-05-21T08:07:54.714Z,20.02
2018-05-21T08:08:54.698Z,20.08
2018-05-21T08:09:54.669Z,20.07
2018-05-21T08:10:54.649Z,20.02
2018-05-21T08:11:54.644Z,20.10
2018-05-21T08:12:54.597Z,20.12
2018-05-21T08:13:54.582Z,20.19
2018-05-21T08:14:54.809Z,20.16
2018-05-21T08:15:54.529Z,20.15
2018-05-21T08:16:54.516Z,20.27
2018-05-21T08:17:54.484Z,20.26
2018-05-21T08:18:54.463Z,20.26
2018-05-21T08:19:54.446Z,20.37
2018-05-21T08:20:54.421Z,20.42
2018-05-21T08:21:54.402Z,20.37
2018-05-21T08:22:54.379Z,20.44
2018-05-21T08:23:54.353Z,20.61
2018-05-21T08:24:55.158Z,20.57
2018-05-21T08:25:54.315Z,20.61
2018-05-21T08:26:54.287Z,20.64
2018-05-21T08:27:54.263Z,20.60
2018-05-21T08:28:54.244Z,20.61
2018-05-21T08:29:54.237Z,20.72
2018-05-21T08:30:54.210Z,20.71
2018-05-21T08:31:54.176Z,20.75
2018-05-21T08:32:54.166Z,20.66
2018-05-21T08:33:54.130Z,20.71
2018-05-21T08:34:54.110Z,20.83
2018-05-21T08:35:54.091Z,20.96
2018-05-21T08:36:54.068Z,20.97
2018-05-21T08:37:54.049Z,20.94
2018-05-21T08:38:54.030Z,21.11
2018-05-21T08:39:54.003Z,21.08
2018-05-21T08:40:53.978Z,21.06
2018-05-21T08:41:53.951Z,21.12
2018-05-21T08:42:53.946Z,21.13
2018-05-21T08:43:53.919Z,21.16
2018-05-21T08:44:53.894Z,21.18
2018-05-21T08:45:53.867Z,21.15
2018-05-21T08:46:53.845Z,21.22
2018-05-21T08:47:53.831Z,21.25
2018-05-21T08:48:53.848Z,21.31
2018-05-21T08:49:53.780Z,21.22
2018-05-21T08:50:53.771Z,21.21
2018-05-21T08:51:53.738Z,21.46
2018-05-21T08:52:53.720Z,21.36
2018-05-21T08:53:53.704Z,21.34
2018-05-21T08:54:53.674Z,21.40
2018-05-21T08:55:53.665Z,21.40
2018-05-21T08:56:53.634Z,21.43
2018-05-21T08:57:53.602Z,21.40
2018-05-21T08:58:53.610Z,21.53
2018-05-21T08:59:53.569Z,21.48
2018-05-21T09:00:53.544Z,21.45
2018-05-21T09:01:53.529Z,21.51
2018-05-21T09:02:53.504Z,21.58
2018-05-21T09:03:53.475Z,21.61
2018-05-21T09:04:53.463Z,21.67
2018-05-21T09:05:53.429Z,21.73
2018-05-21T09:06:53.414Z,21.70
2018-05-21T09:07:53.398Z,21.73
2018-05-21T09:08:53.367Z,21.74
2018-05-21T09:09:53.423Z,21.74
2018-05-21T09:10:53.329Z,21.71
2018-05-21T09:11:53.306Z,21.83
2018-05-21T09:12:53.283Z,21.86
2018-05-21T09:13:53.270Z,21.83
2018-05-21T09:14:53.247Z,21.93
2018-05-21T09:15:53.218Z,21.96
2018-05-21T09:16:53.202Z,21.93
2018-05-21T09:17:53.174Z,21.93
2018-05-21T09:18:53.158Z,21.93
2018-05-21T09:19:53.135Z,21.97
2018-05-21T09:20:53.112Z,22.00
2018-05-21T09:21:53.098Z,22.05
2018-05-21T09:22:53.075Z,22.04
2018-05-21T09:23:53.056Z,22.12
2018-05-21T09:24:53.028Z,22.22
2018-05-21T09:25:53.008Z,22.16
2018-05-21T09:26:52.992Z,22.16
2018-05-21T09:27:52.962Z,22.27
2018-05-21T09:28:52.950Z,22.27
2018-05-21T09:29:52.939Z,22.24
2018-05-21T09:30:52.906Z,22.26
2018-05-21T09:31:52.889Z,22.23
2018-05-21T09:32:52.875Z,22.26
2018-05-21T09:33:52.847Z,22.26
2018-05-21T09:34:52.826Z,22.12
2018-05-21T09:35:52.798Z,22.26
2018-05-21T09:36:52.782Z,22.29
2018-05-21T09:37:52.756Z,22.29
2018-05-21T09:38:52.736Z,22.33
2018-05-21T09:39:52.713Z,22.42
2018-05-21T09:40:52.695Z,22.39
2018-05-21T09:41:52.678Z,22.45
2018-05-21T09:42:52.651Z,22.54
2018-05-21T09:43:52.628Z,22.48
2018-05-21T09:44:52.617Z,22.48
2018-05-21T09:45:52.586Z,22.66
2018-05-21T09:46:52.570Z,22.78
2018-05-21T09:47:52.544Z,22.86
2018-05-21T09:48:52.529Z,22.78
2018-05-21T09:49:52.505Z,22.86
2018-05-21T09:50:52.478Z,22.84
2018-05-21T09:51:52.467Z,22.86
2018-05-21T09:52:52.442Z,22.89
2018-05-21T09:53:52.418Z,22.86
2018-05-21T09:54:52.410Z,22.92
2018-05-21T09:55:52.410Z,22.86
2018-05-21T09:56:52.369Z,22.86
2018-05-21T09:57:52.346Z,22.88
2018-05-21T09:58:52.315Z,22.99
2018-05-21T09:59:52.299Z,23.00
2018-05-21T10:00:52.280Z,23.01
2018-05-21T10:01:52.252Z,23.00
2018-05-21T10:02:52.257Z,23.03
2018-05-21T10:03:52.217Z,23.15
2018-05-21T10:04:52.190Z,23.10
2018-05-21T10:05:52.183Z,23.15
2018-05-21T10:06:52.167Z,23.16
2018-05-21T10:07:52.126Z,23.16
2018-05-21T10:08:52.115Z,23.25
2018-05-21T10:09:52.085Z,23.19
2018-05-21T10:10:52.153Z,23.21
2018-05-21T10:11:52.052Z,23.22
2018-05-21T10:12:52.049Z,23.35
2018-05-21T10:13:52.014Z,23.26
2018-05-21T10:14:51.988Z,23.34
2018-05-21T10:15:51.964Z,23.35
2018-05-21T10:16:51.948Z,23.35
2018-05-21T10:17:52.023Z,23.24
2018-05-21T10:18:51.902Z,23.28
2018-05-21T10:19:51.890Z,23.28
2018-05-21T10:20:51.862Z,23.37
2018-05-21T10:21:51.859Z,23.35
2018-05-21T10:22:51.820Z,23.42
2018-05-21T10:23:51.799Z,23.34
2018-05-21T10:24:51.787Z,23.24
2018-05-21T10:25:51.768Z,23.21
2018-05-21T10:26:51.739Z,23.21
2018-05-21T10:27:51.725Z,23.26
2018-05-21T10:28:51.699Z,23.26
2018-05-21T10:29:51.680Z,23.25
2018-05-21T10:30:51.659Z,23.35
2018-05-21T10:31:51.651Z,23.35
2018-05-21T10:32:51.628Z,23.45
2018-05-21T10:33:51.592Z,23.40
2018-05-21T10:34:51.580Z,23.52
2018-05-21T10:35:51.644Z,23.37
2018-05-21T10:36:51.536Z,23.37
2018-05-21T10:37:51.521Z,23.44
2018-05-21T10:38:51.501Z,23.41
2018-05-21T10:39:51.493Z,23.52
2018-05-21T10:40:51.470Z,23.55
2018-05-21T10:41:51.431Z,23.57
2018-05-21T10:42:51.419Z,23.63
2018-05-21T10:43:51.482Z,23.67
2018-05-21T10:44:51.388Z,23.64
2018-05-21T10:45:51.372Z,23.53
2018-05-21T10:46:51.354Z,23.62
2018-05-21T10:47:51.314Z,23.53
2018-05-21T10:48:51.294Z,23.57
2018-05-21T10:49:51.277Z,23.57
2018-05-21T10:50:51.253Z,23.62
2018-05-21T10:51:51.235Z,23.70
2018-05-21T10:52:51.220Z,23.74
2018-05-21T10:53:51.196Z,23.77
2018-05-21T10:54:51.173Z,23.75
2018-05-21T10:55:51.157Z,23.85
2018-05-21T10:56:51.136Z,23.79
2018-05-21T10:57:51.116Z,23.85
2018-05-21T10:58:51.098Z,23.81
2018-05-21T10:59:51.069Z,23.84
2018-05-21T11:00:51.050Z,23.99
2018-05-21T11:01:51.036Z,23.96
2018-05-21T11:02:51.018Z,24.00
2018-05-21T11:03:50.990Z,24.00
2018-05-21T11:04:50.975Z,23.94
2018-05-21T11:05:50.945Z,24.02
2018-05-21T11:06:50.926Z,23.99
2018-05-21T11:07:50.913Z,24.03
2018-05-21T11:08:50.888Z,24.02
2018-05-21T11:09:50.874Z,24.03
2018-05-21T11:10:50.854Z,24.04
2018-05-21T11:11:50.832Z,24.07
2018-05-21T11:12:50.809Z,24.07
2018-05-21T11:13:50.785Z,24.04
2018-05-21T11:14:50.774Z,24.03
2018-05-21T11:15:50.754Z,24.03
2018-05-21T11:16:50.732Z,24.07
2018-05-21T11:17:50.780Z,24.00
2018-05-21T11:18:50.691Z,24.00
2018-05-21T11:19:50.750Z,24.00
2018-05-21T11:20:50.654Z,24.02
2018-05-21T11:21:50.629Z,24.07
2018-05-21T11:22:50.611Z,24.02
2018-05-21T11:23:50.590Z,23.97
2018-05-21T11:24:50.567Z,24.03
2018-05-21T11:25:50.562Z,24.14
2018-05-21T11:26:50.537Z,24.14
2018-05-21T11:27:50.514Z,24.19
2018-05-21T11:28:50.494Z,24.21
2018-05-21T11:29:50.473Z,24.29
2018-05-21T11:30:50.454Z,24.26
2018-05-21T11:31:50.459Z,24.27
2018-05-21T11:32:50.414Z,24.27
2018-05-21T11:33:50.391Z,24.19
2018-05-21T11:34:50.372Z,24.03
2018-05-21T11:35:50.352Z,24.03
2018-05-21T11:36:50.332Z,24.03
2018-05-21T11:37:50.311Z,24.08
2018-05-21T11:38:50.291Z,24.14
2018-05-21T11:39:50.270Z,24.09
2018-05-21T11:40:50.258Z,24.09
2018-05-21T11:41:50.229Z,24.02
2018-05-21T11:42:50.209Z,24.02
2018-05-21T11:43:50.188Z,24.02
2018-05-21T11:44:50.172Z,24.00
2018-05-21T11:45:50.151Z,24.04
2018-05-21T11:46:50.124Z,24.04
2018-05-21T11:47:50.115Z,24.07
2018-05-21T11:48:50.087Z,24.15
2018-05-21T11:49:50.137Z,24.19
2018-05-21T11:50:50.051Z,24.26
2018-05-21T11:51:50.032Z,24.24
2018-05-21T11:52:50.006Z,24.17
2018-05-21T11:53:49.993Z,24.18
2018-05-21T11:54:49.968Z,24.22
2018-05-21T11:55:49.977Z,24.22
2018-05-21T11:56:49.934Z,24.26
2018-05-21T11:57:49.908Z,24.33
2018-05-21T11:58:49.895Z,24.24
2018-05-21T11:59:49.878Z,24.27
2018-05-21T12:00:49.848Z,24.32
2018-05-21T12:01:49.901Z,24.32
2018-05-21T12:02:49.922Z,24.24
2018-05-21T12:03:49.798Z,24.45
2018-05-21T12:04:49.790Z,24.40
2018-05-21T12:05:49.750Z,24.46
2018-05-21T12:06:49.748Z,24.40
2018-05-21T12:07:49.793Z,24.42
2018-05-21T12:08:49.696Z,24.48
2018-05-21T12:09:49.671Z,24.58
2018-05-21T12:10:49.647Z,24.52
2018-05-21T12:11:50.254Z,24.49
2018-05-21T12:12:49.609Z,24.52
2018-05-21T12:13:49.627Z,24.45
2018-05-21T12:14:49.574Z,24.51
2018-05-21T12:15:49.548Z,24.52
2018-05-21T12:16:49.533Z,24.49
2018-05-21T12:17:49.509Z,24.55
2018-05-21T12:18:49.492Z,24.58
2018-05-21T12:19:49.478Z,24.63
2018-05-21T12:20:49.456Z,24.66
2018-05-21T12:21:49.435Z,24.69
2018-05-21T12:22:49.419Z,24.70
2018-05-21T12:23:49.402Z,24.67
2018-05-21T12:24:49.378Z,24.77
2018-05-21T12:25:49.370Z,24.69
2018-05-21T12:26:49.354Z,24.87
2018-05-21T12:27:49.312Z,24.85
2018-05-21T12:28:49.401Z,24.89
2018-05-21T12:29:49.276Z,24.97
2018-05-21T12:30:49.258Z,24.89
2018-05-21T12:31:49.244Z,24.96
2018-05-21T12:32:49.223Z,24.90
2018-05-21T12:33:49.199Z,25.04
2018-05-21T12:34:49.184Z,24.96
2018-05-21T12:35:49.157Z,25.01
2018-05-21T12:36:49.148Z,24.92
2018-05-21T12:37:49.216Z,24.92
2018-05-21T12:38:49.109Z,24.85
2018-05-21T12:39:49.080Z,24.80
2018-05-21T12:40:49.122Z,24.77
2018-05-21T12:41:49.049Z,24.74
2018-05-21T12:42:49.027Z,24.83
2018-05-21T12:43:49.010Z,24.82
2018-05-21T12:44:48.997Z,24.77
2018-05-21T12:45:48.969Z,24.71
2018-05-21T12:46:48.952Z,24.71
2018-05-21T12:47:48.925Z,24.82
2018-05-21T12:48:48.910Z,24.83
2018-05-21T12:49:48.893Z,24.89
2018-05-21T12:50:48.869Z,24.97
2018-05-21T12:51:48.857Z,24.92